sensor_id;sensor_type;location;lat;lon;timestamp;P1;durP1;ratioP1;P2;durP2;ratioP2
20322;SDS011;10319;52.206;20.996;2022-09-09T00:01:19;13.13;;;3.23;;
20322;SDS011;10319;52.206;20.996;2022-09-09T00:06:30;12.83;;;3.20;;
20322;SDS011;10319;52.206;20.996;2022-09-09T00:09:05;12.93;;;3.57;;
20322;SDS011;10319;52.206;20.996;2022-09-09T00:11:50;16.70;;;4.00;;
20322;SDS011;10319;52.206;20.996;2022-09-09T00:14:26;14.73;;;3.40;;
20322;SDS011;10319;52.206;20.996;2022-09-09T00:16:59;14.43;;;3.50;;
20322;SDS011;10319;52.206;20.996;2022-09-09T00:19:30;14.77;;;3.40;;
20322;SDS011;10319;52.206;20.996;2022-09-09T00:24:41;14.60;;;4.30;;
20322;SDS011;10319;52.206;20.996;2022-09-09T00:27:14;14.70;;;4.00;;
20322;SDS011;10319;52.206;20.996;2022-09-09T00:29:58;14.20;;;3.70;;
20322;SDS011;10319;52.206;20.996;2022-09-09T00:32:27;13.93;;;4.10;;
20322;SDS011;10319;52.206;20.996;2022-09-09T00:34:55;15.73;;;4.30;;
20322;SDS011;10319;52.206;20.996;2022-09-09T00:37:21;14.03;;;3.77;;
20322;SDS011;10319;52.206;20.996;2022-09-09T00:39:47;14.43;;;4.23;;
20322;SDS011;10319;52.206;20.996;2022-09-09T00:42:14;18.00;;;4.60;;
20322;SDS011;10319;52.206;20.996;2022-09-09T00:44:46;15.33;;;4.00;;
20322;SDS011;10319;52.206;20.996;2022-09-09T00:47:35;13.50;;;3.70;;
20322;SDS011;10319;52.206;20.996;2022-09-09T00:52:47;15.77;;;4.43;;
20322;SDS011;10319;52.206;20.996;2022-09-09T00:55:28;16.77;;;4.77;;
20322;SDS011;10319;52.206;20.996;2022-09-09T00:58:00;14.40;;;4.53;;
20322;SDS011;10319;52.206;20.996;2022-09-09T01:00:30;18.40;;;4.63;;
20322;SDS011;10319;52.206;20.996;2022-09-09T01:03:10;16.13;;;3.93;;
20322;SDS011;10319;52.206;20.996;2022-09-09T01:08:29;17.60;;;4.63;;
20322;SDS011;10319;52.206;20.996;2022-09-09T01:11:00;17.53;;;4.53;;
20322;SDS011;10319;52.206;20.996;2022-09-09T01:13:28;16.70;;;4.10;;
20322;SDS011;10319;52.206;20.996;2022-09-09T01:15:58;16.43;;;4.60;;
20322;SDS011;10319;52.206;20.996;2022-09-09T01:18:35;15.53;;;4.13;;
20322;SDS011;10319;52.206;20.996;2022-09-09T01:28:37;15.50;;;4.80;;
20322;SDS011;10319;52.206;20.996;2022-09-09T01:31:04;16.23;;;4.70;;
20322;SDS011;10319;52.206;20.996;2022-09-09T01:33:31;16.27;;;4.43;;
20322;SDS011;10319;52.206;20.996;2022-09-09T01:38:31;16.83;;;4.70;;
20322;SDS011;10319;52.206;20.996;2022-09-09T01:40:56;14.13;;;4.30;;
20322;SDS011;10319;52.206;20.996;2022-09-09T01:43:23;15.70;;;4.13;;
20322;SDS011;10319;52.206;20.996;2022-09-09T01:45:49;16.27;;;4.93;;
20322;SDS011;10319;52.206;20.996;2022-09-09T01:48:16;15.30;;;4.43;;
20322;SDS011;10319;52.206;20.996;2022-09-09T01:50:42;16.27;;;4.57;;
20322;SDS011;10319;52.206;20.996;2022-09-09T01:53:08;15.80;;;4.23;;
20322;SDS011;10319;52.206;20.996;2022-09-09T01:55:39;13.97;;;4.20;;
20322;SDS011;10319;52.206;20.996;2022-09-09T01:58:09;15.60;;;4.77;;
20322;SDS011;10319;52.206;20.996;2022-09-09T02:00:36;16.50;;;4.83;;
20322;SDS011;10319;52.206;20.996;2022-09-09T02:10:47;17.07;;;5.03;;
20322;SDS011;10319;52.206;20.996;2022-09-09T02:13:17;13.80;;;4.50;;
20322;SDS011;10319;52.206;20.996;2022-09-09T02:18:10;13.40;;;3.83;;
20322;SDS011;10319;52.206;20.996;2022-09-09T02:20:44;15.47;;;4.70;;
20322;SDS011;10319;52.206;20.996;2022-09-09T02:23:11;16.57;;;4.90;;
20322;SDS011;10319;52.206;20.996;2022-09-09T02:25:37;16.23;;;4.63;;
20322;SDS011;10319;52.206;20.996;2022-09-09T02:28:06;16.07;;;4.87;;
20322;SDS011;10319;52.206;20.996;2022-09-09T02:30:35;13.90;;;4.77;;
20322;SDS011;10319;52.206;20.996;2022-09-09T02:33:04;15.20;;;4.93;;
20322;SDS011;10319;52.206;20.996;2022-09-09T02:35:31;17.17;;;5.20;;
20322;SDS011;10319;52.206;20.996;2022-09-09T02:37:59;15.83;;;4.53;;
20322;SDS011;10319;52.206;20.996;2022-09-09T02:40:25;18.67;;;5.70;;
20322;SDS011;10319;52.206;20.996;2022-09-09T02:42:50;14.97;;;4.90;;
20322;SDS011;10319;52.206;20.996;2022-09-09T02:45:16;17.37;;;5.13;;
20322;SDS011;10319;52.206;20.996;2022-09-09T02:47:46;15.47;;;4.87;;
20322;SDS011;10319;52.206;20.996;2022-09-09T02:50:20;14.57;;;4.70;;
20322;SDS011;10319;52.206;20.996;2022-09-09T02:52:50;14.97;;;5.00;;
20322;SDS011;10319;52.206;20.996;2022-09-09T02:55:37;17.57;;;5.33;;
20322;SDS011;10319;52.206;20.996;2022-09-09T02:58:04;15.57;;;4.90;;
20322;SDS011;10319;52.206;20.996;2022-09-09T03:00:32;14.93;;;4.43;;
20322;SDS011;10319;52.206;20.996;2022-09-09T03:02:57;14.63;;;4.93;;
20322;SDS011;10319;52.206;20.996;2022-09-09T03:05:22;16.43;;;4.83;;
20322;SDS011;10319;52.206;20.996;2022-09-09T03:07:48;18.47;;;5.03;;
20322;SDS011;10319;52.206;20.996;2022-09-09T03:10:15;20.57;;;4.90;;
20322;SDS011;10319;52.206;20.996;2022-09-09T03:12:40;15.97;;;4.57;;
20322;SDS011;10319;52.206;20.996;2022-09-09T03:15:06;15.17;;;4.90;;
20322;SDS011;10319;52.206;20.996;2022-09-09T03:17:31;14.50;;;4.50;;
20322;SDS011;10319;52.206;20.996;2022-09-09T03:19:57;16.60;;;4.20;;
20322;SDS011;10319;52.206;20.996;2022-09-09T03:22:23;16.17;;;5.07;;
20322;SDS011;10319;52.206;20.996;2022-09-09T03:24:50;16.83;;;5.10;;
20322;SDS011;10319;52.206;20.996;2022-09-09T03:27:15;15.90;;;4.77;;
20322;SDS011;10319;52.206;20.996;2022-09-09T03:29:40;15.73;;;4.80;;
20322;SDS011;10319;52.206;20.996;2022-09-09T03:32:06;13.77;;;4.03;;
20322;SDS011;10319;52.206;20.996;2022-09-09T03:34:31;15.33;;;4.83;;
20322;SDS011;10319;52.206;20.996;2022-09-09T03:36:56;17.07;;;4.90;;
20322;SDS011;10319;52.206;20.996;2022-09-09T03:39:21;15.37;;;4.63;;
20322;SDS011;10319;52.206;20.996;2022-09-09T03:41:46;16.07;;;4.57;;
20322;SDS011;10319;52.206;20.996;2022-09-09T03:44:13;15.47;;;4.23;;
20322;SDS011;10319;52.206;20.996;2022-09-09T03:46:38;14.87;;;4.50;;
20322;SDS011;10319;52.206;20.996;2022-09-09T03:49:03;15.77;;;4.63;;
20322;SDS011;10319;52.206;20.996;2022-09-09T03:51:29;14.67;;;4.43;;
20322;SDS011;10319;52.206;20.996;2022-09-09T03:53:54;15.23;;;4.73;;
20322;SDS011;10319;52.206;20.996;2022-09-09T03:56:23;17.43;;;4.27;;
20322;SDS011;10319;52.206;20.996;2022-09-09T03:58:48;15.90;;;4.13;;
20322;SDS011;10319;52.206;20.996;2022-09-09T04:01:13;13.27;;;4.33;;
20322;SDS011;10319;52.206;20.996;2022-09-09T04:03:39;14.97;;;4.40;;
20322;SDS011;10319;52.206;20.996;2022-09-09T04:06:05;14.50;;;4.57;;
20322;SDS011;10319;52.206;20.996;2022-09-09T04:08:31;12.87;;;3.77;;
20322;SDS011;10319;52.206;20.996;2022-09-09T04:10:57;13.27;;;4.00;;
20322;SDS011;10319;52.206;20.996;2022-09-09T04:13:22;14.97;;;4.60;;
20322;SDS011;10319;52.206;20.996;2022-09-09T04:15:52;13.30;;;3.97;;
20322;SDS011;10319;52.206;20.996;2022-09-09T04:18:17;13.67;;;4.10;;
20322;SDS011;10319;52.206;20.996;2022-09-09T04:20:45;14.47;;;4.10;;
20322;SDS011;10319;52.206;20.996;2022-09-09T04:23:10;13.67;;;4.37;;
20322;SDS011;10319;52.206;20.996;2022-09-09T04:25:36;14.10;;;3.93;;
20322;SDS011;10319;52.206;20.996;2022-09-09T04:28:02;14.27;;;4.30;;
20322;SDS011;10319;52.206;20.996;2022-09-09T04:30:28;13.23;;;4.03;;
20322;SDS011;10319;52.206;20.996;2022-09-09T04:32:53;12.90;;;3.67;;
20322;SDS011;10319;52.206;20.996;2022-09-09T04:35:18;14.30;;;4.10;;
20322;SDS011;10319;52.206;20.996;2022-09-09T04:37:44;12.93;;;3.80;;
20322;SDS011;10319;52.206;20.996;2022-09-09T04:40:10;13.53;;;4.27;;
20322;SDS011;10319;52.206;20.996;2022-09-09T04:42:35;12.90;;;3.80;;
20322;SDS011;10319;52.206;20.996;2022-09-09T04:45:00;13.77;;;3.63;;
20322;SDS011;10319;52.206;20.996;2022-09-09T04:47:26;12.73;;;3.43;;
20322;SDS011;10319;52.206;20.996;2022-09-09T04:49:51;11.80;;;3.20;;
20322;SDS011;10319;52.206;20.996;2022-09-09T04:52:19;12.83;;;3.30;;
20322;SDS011;10319;52.206;20.996;2022-09-09T04:54:44;12.63;;;3.50;;
20322;SDS011;10319;52.206;20.996;2022-09-09T04:57:10;12.30;;;3.50;;
20322;SDS011;10319;52.206;20.996;2022-09-09T04:59:35;12.97;;;3.50;;
20322;SDS011;10319;52.206;20.996;2022-09-09T05:02:00;13.60;;;3.63;;
20322;SDS011;10319;52.206;20.996;2022-09-09T05:04:28;12.63;;;3.40;;
20322;SDS011;10319;52.206;20.996;2022-09-09T05:06:53;14.97;;;3.70;;
20322;SDS011;10319;52.206;20.996;2022-09-09T05:09:18;13.37;;;3.93;;
20322;SDS011;10319;52.206;20.996;2022-09-09T05:11:44;12.67;;;3.20;;
20322;SDS011;10319;52.206;20.996;2022-09-09T05:14:09;12.43;;;3.20;;
20322;SDS011;10319;52.206;20.996;2022-09-09T05:16:36;11.70;;;2.90;;
20322;SDS011;10319;52.206;20.996;2022-09-09T05:19:01;9.60;;;2.70;;
20322;SDS011;10319;52.206;20.996;2022-09-09T05:21:28;11.43;;;3.17;;
20322;SDS011;10319;52.206;20.996;2022-09-09T05:23:53;12.50;;;3.30;;
20322;SDS011;10319;52.206;20.996;2022-09-09T05:26:19;12.07;;;3.17;;
20322;SDS011;10319;52.206;20.996;2022-09-09T05:28:44;13.10;;;3.13;;
20322;SDS011;10319;52.206;20.996;2022-09-09T05:31:10;12.20;;;2.80;;
20322;SDS011;10319;52.206;20.996;2022-09-09T05:33:37;13.37;;;3.03;;
20322;SDS011;10319;52.206;20.996;2022-09-09T05:36:06;11.93;;;3.10;;
20322;SDS011;10319;52.206;20.996;2022-09-09T05:38:32;11.07;;;2.80;;
20322;SDS011;10319;52.206;20.996;2022-09-09T05:40:58;13.30;;;3.37;;
20322;SDS011;10319;52.206;20.996;2022-09-09T05:43:23;10.97;;;2.87;;
20322;SDS011;10319;52.206;20.996;2022-09-09T05:45:58;10.23;;;2.83;;
20322;SDS011;10319;52.206;20.996;2022-09-09T05:48:27;9.07;;;2.60;;
20322;SDS011;10319;52.206;20.996;2022-09-09T05:50:52;11.97;;;3.10;;
20322;SDS011;10319;52.206;20.996;2022-09-09T05:53:18;11.07;;;3.27;;
20322;SDS011;10319;52.206;20.996;2022-09-09T05:55:43;12.07;;;3.10;;
20322;SDS011;10319;52.206;20.996;2022-09-09T05:58:10;8.40;;;2.47;;
20322;SDS011;10319;52.206;20.996;2022-09-09T06:00:36;14.90;;;3.10;;
20322;SDS011;10319;52.206;20.996;2022-09-09T06:03:01;11.20;;;2.93;;
20322;SDS011;10319;52.206;20.996;2022-09-09T06:05:27;12.53;;;2.87;;
20322;SDS011;10319;52.206;20.996;2022-09-09T06:07:53;10.47;;;2.93;;
20322;SDS011;10319;52.206;20.996;2022-09-09T06:10:18;10.07;;;2.93;;
20322;SDS011;10319;52.206;20.996;2022-09-09T06:12:44;12.20;;;3.00;;
20322;SDS011;10319;52.206;20.996;2022-09-09T06:15:09;12.10;;;2.77;;
20322;SDS011;10319;52.206;20.996;2022-09-09T06:17:34;11.13;;;3.10;;
20322;SDS011;10319;52.206;20.996;2022-09-09T06:19:59;10.70;;;3.00;;
20322;SDS011;10319;52.206;20.996;2022-09-09T06:22:25;10.67;;;2.90;;
20322;SDS011;10319;52.206;20.996;2022-09-09T06:24:50;11.07;;;3.07;;
20322;SDS011;10319;52.206;20.996;2022-09-09T06:27:16;11.37;;;2.90;;
20322;SDS011;10319;52.206;20.996;2022-09-09T06:29:41;14.03;;;3.20;;
20322;SDS011;10319;52.206;20.996;2022-09-09T06:32:06;10.43;;;2.87;;
20322;SDS011;10319;52.206;20.996;2022-09-09T06:34:33;11.27;;;3.20;;
20322;SDS011;10319;52.206;20.996;2022-09-09T06:36:58;10.73;;;3.30;;
20322;SDS011;10319;52.206;20.996;2022-09-09T06:39:23;10.87;;;3.30;;
20322;SDS011;10319;52.206;20.996;2022-09-09T06:41:49;13.13;;;3.60;;
20322;SDS011;10319;52.206;20.996;2022-09-09T06:44:14;11.93;;;3.27;;
20322;SDS011;10319;52.206;20.996;2022-09-09T06:46:40;11.27;;;3.07;;
20322;SDS011;10319;52.206;20.996;2022-09-09T06:49:05;12.13;;;3.67;;
20322;SDS011;10319;52.206;20.996;2022-09-09T06:51:31;9.87;;;2.70;;
20322;SDS011;10319;52.206;20.996;2022-09-09T06:53:58;12.07;;;3.27;;
20322;SDS011;10319;52.206;20.996;2022-09-09T06:58:53;10.67;;;3.20;;
20322;SDS011;10319;52.206;20.996;2022-09-09T07:01:20;11.43;;;3.30;;
20322;SDS011;10319;52.206;20.996;2022-09-09T07:03:50;11.67;;;3.30;;
20322;SDS011;10319;52.206;20.996;2022-09-09T07:06:19;12.80;;;3.20;;
20322;SDS011;10319;52.206;20.996;2022-09-09T07:08:48;11.80;;;3.17;;
20322;SDS011;10319;52.206;20.996;2022-09-09T07:11:13;10.77;;;3.17;;
20322;SDS011;10319;52.206;20.996;2022-09-09T07:13:39;10.63;;;3.13;;
20322;SDS011;10319;52.206;20.996;2022-09-09T07:16:04;11.03;;;3.03;;
20322;SDS011;10319;52.206;20.996;2022-09-09T07:18:30;11.53;;;3.30;;
20322;SDS011;10319;52.206;20.996;2022-09-09T07:20:56;12.70;;;3.87;;
20322;SDS011;10319;52.206;20.996;2022-09-09T07:23:22;12.10;;;3.57;;
20322;SDS011;10319;52.206;20.996;2022-09-09T07:25:47;12.10;;;3.30;;
20322;SDS011;10319;52.206;20.996;2022-09-09T07:28:12;12.10;;;3.77;;
20322;SDS011;10319;52.206;20.996;2022-09-09T07:30:38;12.17;;;3.70;;
20322;SDS011;10319;52.206;20.996;2022-09-09T07:33:03;12.60;;;3.40;;
20322;SDS011;10319;52.206;20.996;2022-09-09T07:35:28;13.90;;;3.83;;
20322;SDS011;10319;52.206;20.996;2022-09-09T07:37:54;13.80;;;4.10;;
20322;SDS011;10319;52.206;20.996;2022-09-09T07:40:19;14.07;;;4.63;;
20322;SDS011;10319;52.206;20.996;2022-09-09T07:42:46;13.83;;;4.30;;
20322;SDS011;10319;52.206;20.996;2022-09-09T07:45:11;12.90;;;3.90;;
20322;SDS011;10319;52.206;20.996;2022-09-09T07:47:37;15.30;;;4.40;;
20322;SDS011;10319;52.206;20.996;2022-09-09T07:50:02;13.20;;;4.30;;
20322;SDS011;10319;52.206;20.996;2022-09-09T07:52:27;14.77;;;4.20;;
20322;SDS011;10319;52.206;20.996;2022-09-09T07:54:52;14.30;;;4.67;;
20322;SDS011;10319;52.206;20.996;2022-09-09T07:57:17;12.97;;;3.90;;
20322;SDS011;10319;52.206;20.996;2022-09-09T07:59:43;12.93;;;3.97;;
20322;SDS011;10319;52.206;20.996;2022-09-09T08:02:08;12.63;;;4.00;;
20322;SDS011;10319;52.206;20.996;2022-09-09T08:04:34;12.97;;;4.13;;
20322;SDS011;10319;52.206;20.996;2022-09-09T08:07:00;13.20;;;4.27;;
20322;SDS011;10319;52.206;20.996;2022-09-09T08:09:26;14.67;;;4.73;;
20322;SDS011;10319;52.206;20.996;2022-09-09T08:11:55;15.47;;;5.40;;
20322;SDS011;10319;52.206;20.996;2022-09-09T08:14:21;14.17;;;5.00;;
20322;SDS011;10319;52.206;20.996;2022-09-09T08:16:48;14.73;;;4.70;;
20322;SDS011;10319;52.206;20.996;2022-09-09T08:19:14;14.83;;;4.70;;
20322;SDS011;10319;52.206;20.996;2022-09-09T08:21:40;14.13;;;4.90;;
20322;SDS011;10319;52.206;20.996;2022-09-09T08:24:06;13.83;;;4.73;;
20322;SDS011;10319;52.206;20.996;2022-09-09T08:26:32;14.03;;;5.00;;
20322;SDS011;10319;52.206;20.996;2022-09-09T08:28:59;15.97;;;5.87;;
20322;SDS011;10319;52.206;20.996;2022-09-09T08:31:35;14.63;;;5.03;;
20322;SDS011;10319;52.206;20.996;2022-09-09T08:34:02;15.23;;;5.37;;
20322;SDS011;10319;52.206;20.996;2022-09-09T08:36:29;16.10;;;5.40;;
20322;SDS011;10319;52.206;20.996;2022-09-09T08:38:55;15.10;;;5.37;;
20322;SDS011;10319;52.206;20.996;2022-09-09T08:46:36;15.63;;;5.70;;
20322;SDS011;10319;52.206;20.996;2022-09-09T08:49:14;16.47;;;5.27;;
20322;SDS011;10319;52.206;20.996;2022-09-09T08:51:43;16.33;;;5.70;;
20322;SDS011;10319;52.206;20.996;2022-09-09T08:54:08;15.93;;;5.93;;
20322;SDS011;10319;52.206;20.996;2022-09-09T08:56:34;14.20;;;5.33;;
20322;SDS011;10319;52.206;20.996;2022-09-09T08:58:59;16.80;;;6.10;;
20322;SDS011;10319;52.206;20.996;2022-09-09T09:06:37;16.77;;;6.03;;
20322;SDS011;10319;52.206;20.996;2022-09-09T09:11:40;18.80;;;6.53;;
20322;SDS011;10319;52.206;20.996;2022-09-09T09:14:23;17.17;;;5.97;;
20322;SDS011;10319;52.206;20.996;2022-09-09T09:16:59;17.17;;;6.63;;
20322;SDS011;10319;52.206;20.996;2022-09-09T09:19:24;19.10;;;6.93;;
20322;SDS011;10319;52.206;20.996;2022-09-09T09:21:57;16.13;;;6.13;;
20322;SDS011;10319;52.206;20.996;2022-09-09T09:24:36;17.47;;;6.53;;
20322;SDS011;10319;52.206;20.996;2022-09-09T09:27:11;17.43;;;7.00;;
20322;SDS011;10319;52.206;20.996;2022-09-09T09:29:37;17.67;;;6.97;;
20322;SDS011;10319;52.206;20.996;2022-09-09T09:32:03;19.43;;;6.80;;
20322;SDS011;10319;52.206;20.996;2022-09-09T09:34:29;19.50;;;7.63;;
20322;SDS011;10319;52.206;20.996;2022-09-09T09:36:55;20.73;;;7.13;;
20322;SDS011;10319;52.206;20.996;2022-09-09T09:39:22;19.47;;;7.43;;
20322;SDS011;10319;52.206;20.996;2022-09-09T09:41:47;17.40;;;6.73;;
20322;SDS011;10319;52.206;20.996;2022-09-09T09:44:46;16.00;;;6.00;;
20322;SDS011;10319;52.206;20.996;2022-09-09T09:47:08;16.83;;;6.50;;
20322;SDS011;10319;52.206;20.996;2022-09-09T09:49:33;16.37;;;6.50;;
20322;SDS011;10319;52.206;20.996;2022-09-09T09:52:12;17.43;;;5.90;;
20322;SDS011;10319;52.206;20.996;2022-09-09T09:54:41;16.37;;;6.67;;
20322;SDS011;10319;52.206;20.996;2022-09-09T09:57:14;18.20;;;6.83;;
20322;SDS011;10319;52.206;20.996;2022-09-09T09:59:40;20.57;;;7.53;;
20322;SDS011;10319;52.206;20.996;2022-09-09T10:02:19;21.43;;;7.50;;
20322;SDS011;10319;52.206;20.996;2022-09-09T10:04:45;18.03;;;7.30;;
20322;SDS011;10319;52.206;20.996;2022-09-09T10:07:11;18.57;;;7.10;;
20322;SDS011;10319;52.206;20.996;2022-09-09T10:09:36;18.43;;;6.83;;
20322;SDS011;10319;52.206;20.996;2022-09-09T10:12:05;19.77;;;7.90;;
20322;SDS011;10319;52.206;20.996;2022-09-09T10:14:39;17.70;;;7.00;;
20322;SDS011;10319;52.206;20.996;2022-09-09T10:19:31;26.30;;;9.07;;
20322;SDS011;10319;52.206;20.996;2022-09-09T10:26:55;21.50;;;8.60;;
20322;SDS011;10319;52.206;20.996;2022-09-09T10:29:29;20.60;;;8.33;;
20322;SDS011;10319;52.206;20.996;2022-09-09T10:32:06;19.83;;;8.30;;
20322;SDS011;10319;52.206;20.996;2022-09-09T10:40:12;25.00;;;9.63;;
20322;SDS011;10319;52.206;20.996;2022-09-09T10:42:38;23.17;;;9.37;;
20322;SDS011;10319;52.206;20.996;2022-09-09T10:45:49;23.63;;;9.57;;
20322;SDS011;10319;52.206;20.996;2022-09-09T10:53:14;23.63;;;9.90;;
20322;SDS011;10319;52.206;20.996;2022-09-09T10:55:43;22.13;;;9.67;;
20322;SDS011;10319;52.206;20.996;2022-09-09T10:58:20;26.70;;;11.33;;
20322;SDS011;10319;52.206;20.996;2022-09-09T11:00:47;24.30;;;10.63;;
20322;SDS011;10319;52.206;20.996;2022-09-09T11:03:35;21.67;;;9.47;;
20322;SDS011;10319;52.206;20.996;2022-09-09T11:08:25;25.63;;;10.47;;
20322;SDS011;10319;52.206;20.996;2022-09-09T11:10:53;24.90;;;10.83;;
20322;SDS011;10319;52.206;20.996;2022-09-09T11:13:24;22.40;;;9.53;;
20322;SDS011;10319;52.206;20.996;2022-09-09T11:15:54;22.07;;;9.90;;
20322;SDS011;10319;52.206;20.996;2022-09-09T11:18:22;25.83;;;10.77;;
20322;SDS011;10319;52.206;20.996;2022-09-09T11:20:49;21.50;;;9.03;;
20322;SDS011;10319;52.206;20.996;2022-09-09T11:23:17;26.07;;;11.03;;
20322;SDS011;10319;52.206;20.996;2022-09-09T11:25:44;24.90;;;10.27;;
20322;SDS011;10319;52.206;20.996;2022-09-09T11:38:29;24.27;;;9.97;;
20322;SDS011;10319;52.206;20.996;2022-09-09T11:41:01;23.20;;;9.93;;
20322;SDS011;10319;52.206;20.996;2022-09-09T11:43:37;29.63;;;12.13;;
20322;SDS011;10319;52.206;20.996;2022-09-09T11:46:04;27.73;;;10.07;;
20322;SDS011;10319;52.206;20.996;2022-09-09T11:53:30;25.63;;;11.60;;
20322;SDS011;10319;52.206;20.996;2022-09-09T11:56:02;28.33;;;11.53;;
20322;SDS011;10319;52.206;20.996;2022-09-09T11:58:29;27.33;;;11.93;;
20322;SDS011;10319;52.206;20.996;2022-09-09T12:00:57;28.60;;;12.70;;
20322;SDS011;10319;52.206;20.996;2022-09-09T12:06:08;29.13;;;12.57;;
20322;SDS011;10319;52.206;20.996;2022-09-09T12:08:34;27.67;;;12.33;;
20322;SDS011;10319;52.206;20.996;2022-09-09T12:11:01;27.93;;;12.73;;
20322;SDS011;10319;52.206;20.996;2022-09-09T12:13:28;33.10;;;13.97;;
20322;SDS011;10319;52.206;20.996;2022-09-09T12:15:54;30.40;;;13.20;;
20322;SDS011;10319;52.206;20.996;2022-09-09T12:18:24;31.07;;;13.37;;
20322;SDS011;10319;52.206;20.996;2022-09-09T12:23:47;25.60;;;10.17;;
20322;SDS011;10319;52.206;20.996;2022-09-09T12:31:25;27.80;;;11.13;;
20322;SDS011;10319;52.206;20.996;2022-09-09T12:33:53;29.57;;;12.57;;
20322;SDS011;10319;52.206;20.996;2022-09-09T12:36:26;30.50;;;13.63;;
20322;SDS011;10319;52.206;20.996;2022-09-09T12:38:53;32.10;;;14.07;;
20322;SDS011;10319;52.206;20.996;2022-09-09T12:43:46;28.23;;;12.10;;
20322;SDS011;10319;52.206;20.996;2022-09-09T12:46:34;27.63;;;11.73;;
20322;SDS011;10319;52.206;20.996;2022-09-09T12:48:56;31.47;;;14.00;;
20322;SDS011;10319;52.206;20.996;2022-09-09T12:51:26;30.10;;;12.70;;
20322;SDS011;10319;52.206;20.996;2022-09-09T12:53:52;32.20;;;13.23;;
20322;SDS011;10319;52.206;20.996;2022-09-09T12:56:25;30.80;;;13.93;;
20322;SDS011;10319;52.206;20.996;2022-09-09T12:58:54;30.25;;;13.68;;
20322;SDS011;10319;52.206;20.996;2022-09-09T13:01:27;29.88;;;13.35;;
20322;SDS011;10319;52.206;20.996;2022-09-09T13:03:53;31.85;;;14.32;;
20322;SDS011;10319;52.206;20.996;2022-09-09T13:06:29;32.83;;;13.93;;
20322;SDS011;10319;52.206;20.996;2022-09-09T13:08:57;29.88;;;12.50;;
20322;SDS011;10319;52.206;20.996;2022-09-09T13:11:57;30.10;;;13.02;;
20322;SDS011;10319;52.206;20.996;2022-09-09T13:14:19;31.53;;;13.77;;
20322;SDS011;10319;52.206;20.996;2022-09-09T13:16:57;29.17;;;13.23;;
20322;SDS011;10319;52.206;20.996;2022-09-09T13:19:23;29.63;;;13.63;;
20322;SDS011;10319;52.206;20.996;2022-09-09T13:21:52;32.70;;;13.70;;
20322;SDS011;10319;52.206;20.996;2022-09-09T13:24:33;30.23;;;12.37;;
20322;SDS011;10319;52.206;20.996;2022-09-09T13:27:00;31.45;;;13.55;;
20322;SDS011;10319;52.206;20.996;2022-09-09T13:29:29;34.90;;;13.73;;
20322;SDS011;10319;52.206;20.996;2022-09-09T13:32:05;31.98;;;13.73;;
20322;SDS011;10319;52.206;20.996;2022-09-09T13:34:33;33.83;;;14.25;;
20322;SDS011;10319;52.206;20.996;2022-09-09T13:37:01;30.75;;;12.93;;
20322;SDS011;10319;52.206;20.996;2022-09-09T13:39:31;29.92;;;13.23;;
20322;SDS011;10319;52.206;20.996;2022-09-09T13:41:57;33.10;;;13.07;;
20322;SDS011;10319;52.206;20.996;2022-09-09T13:46:58;30.65;;;12.80;;
20322;SDS011;10319;52.206;20.996;2022-09-09T13:49:24;34.30;;;13.67;;
20322;SDS011;10319;52.206;20.996;2022-09-09T13:52:02;29.50;;;12.23;;
20322;SDS011;10319;52.206;20.996;2022-09-09T13:54:28;31.13;;;12.48;;
20322;SDS011;10319;52.206;20.996;2022-09-09T13:56:53;31.52;;;12.30;;
20322;SDS011;10319;52.206;20.996;2022-09-09T13:59:19;31.60;;;13.13;;
20322;SDS011;10319;52.206;20.996;2022-09-09T14:01:49;30.27;;;12.68;;
20322;SDS011;10319;52.206;20.996;2022-09-09T14:04:14;29.17;;;12.55;;
20322;SDS011;10319;52.206;20.996;2022-09-09T14:06:40;30.80;;;12.68;;
20322;SDS011;10319;52.206;20.996;2022-09-09T14:09:06;30.73;;;12.17;;
20322;SDS011;10319;52.206;20.996;2022-09-09T14:11:32;31.97;;;12.73;;
20322;SDS011;10319;52.206;20.996;2022-09-09T14:13:57;29.20;;;12.00;;
20322;SDS011;10319;52.206;20.996;2022-09-09T14:16:22;30.77;;;11.97;;
20322;SDS011;10319;52.206;20.996;2022-09-09T14:18:47;29.23;;;12.80;;
20322;SDS011;10319;52.206;20.996;2022-09-09T14:21:13;32.60;;;12.27;;
20322;SDS011;10319;52.206;20.996;2022-09-09T14:23:39;34.37;;;13.10;;
20322;SDS011;10319;52.206;20.996;2022-09-09T14:26:07;28.07;;;12.20;;
20322;SDS011;10319;52.206;20.996;2022-09-09T14:28:33;32.33;;;12.83;;
20322;SDS011;10319;52.206;20.996;2022-09-09T14:31:01;32.37;;;13.40;;
20322;SDS011;10319;52.206;20.996;2022-09-09T14:33:26;33.20;;;12.90;;
20322;SDS011;10319;52.206;20.996;2022-09-09T14:35:57;33.93;;;12.33;;
20322;SDS011;10319;52.206;20.996;2022-09-09T14:38:22;33.50;;;12.73;;
20322;SDS011;10319;52.206;20.996;2022-09-09T14:40:47;32.03;;;12.33;;
20322;SDS011;10319;52.206;20.996;2022-09-09T14:43:13;32.65;;;13.25;;
20322;SDS011;10319;52.206;20.996;2022-09-09T14:45:39;27.93;;;12.07;;
20322;SDS011;10319;52.206;20.996;2022-09-09T14:48:04;27.57;;;10.97;;
20322;SDS011;10319;52.206;20.996;2022-09-09T14:50:29;27.52;;;10.13;;
20322;SDS011;10319;52.206;20.996;2022-09-09T14:52:54;23.23;;;9.50;;
20322;SDS011;10319;52.206;20.996;2022-09-09T14:55:20;33.22;;;12.52;;
20322;SDS011;10319;52.206;20.996;2022-09-09T14:57:46;29.50;;;11.90;;
20322;SDS011;10319;52.206;20.996;2022-09-09T15:00:11;32.70;;;13.03;;
20322;SDS011;10319;52.206;20.996;2022-09-09T15:02:38;31.63;;;13.13;;
20322;SDS011;10319;52.206;20.996;2022-09-09T15:05:03;30.37;;;12.07;;
20322;SDS011;10319;52.206;20.996;2022-09-09T15:07:29;27.45;;;12.00;;
20322;SDS011;10319;52.206;20.996;2022-09-09T15:09:54;29.53;;;11.73;;
20322;SDS011;10319;52.206;20.996;2022-09-09T15:12:20;30.85;;;12.38;;
20322;SDS011;10319;52.206;20.996;2022-09-09T15:14:45;26.97;;;10.97;;
20322;SDS011;10319;52.206;20.996;2022-09-09T15:17:10;31.42;;;13.23;;
20322;SDS011;10319;52.206;20.996;2022-09-09T15:19:36;34.83;;;13.32;;
20322;SDS011;10319;52.206;20.996;2022-09-09T15:22:01;29.63;;;11.75;;
20322;SDS011;10319;52.206;20.996;2022-09-09T15:24:27;33.03;;;13.43;;
20322;SDS011;10319;52.206;20.996;2022-09-09T15:26:52;28.87;;;12.53;;
20322;SDS011;10319;52.206;20.996;2022-09-09T15:29:18;27.42;;;11.43;;
20322;SDS011;10319;52.206;20.996;2022-09-09T15:31:43;29.63;;;12.17;;
20322;SDS011;10319;52.206;20.996;2022-09-09T15:34:09;26.87;;;12.77;;
20322;SDS011;10319;52.206;20.996;2022-09-09T15:36:35;30.38;;;13.30;;
20322;SDS011;10319;52.206;20.996;2022-09-09T15:39:01;26.95;;;12.35;;
20322;SDS011;10319;52.206;20.996;2022-09-09T15:41:27;32.15;;;13.15;;
20322;SDS011;10319;52.206;20.996;2022-09-09T15:43:52;26.83;;;11.02;;
20322;SDS011;10319;52.206;20.996;2022-09-09T15:49:13;28.33;;;12.18;;
20322;SDS011;10319;52.206;20.996;2022-09-09T15:51:39;25.83;;;10.93;;
20322;SDS011;10319;52.206;20.996;2022-09-09T15:54:04;30.02;;;12.73;;
20322;SDS011;10319;52.206;20.996;2022-09-09T15:56:30;25.03;;;11.50;;
20322;SDS011;10319;52.206;20.996;2022-09-09T15:58:56;24.35;;;10.05;;
20322;SDS011;10319;52.206;20.996;2022-09-09T16:01:22;26.52;;;11.35;;
20322;SDS011;10319;52.206;20.996;2022-09-09T16:03:47;26.67;;;12.40;;